createdAt,value
2023-04-26T00:04:32.613Z,101835.13
2023-04-26T00:09:35.304Z,101831.19
2023-04-26T00:14:36.986Z,101834.06
2023-04-26T00:19:39.790Z,101832.47
2023-04-26T00:24:42.028Z,101819.94
2023-04-26T00:29:46.410Z,101829.16
2023-04-26T00:34:48.137Z,101832.59
2023-04-26T00:39:52.733Z,101832.75
2023-04-26T00:44:57.570Z,101825.06
2023-04-26T00:50:01.388Z,101825.44
2023-04-26T00:55:03.368Z,101829.09
2023-04-26T01:00:05.847Z,101826.75
2023-04-26T01:05:07.979Z,101820.41
2023-04-26T01:10:10.524Z,101827.31
2023-04-26T01:15:13.762Z,101828.72
2023-04-26T01:20:15.484Z,101831.63
2023-04-26T01:25:18.307Z,101830.00
2023-04-26T01:30:20.238Z,101830.97
2023-04-26T01:35:22.495Z,101826.34
2023-04-26T01:40:24.246Z,101831.44
2023-04-26T01:45:26.002Z,101821.59
2023-04-26T01:50:46.236Z,101824.75
2023-04-26T01:55:48.235Z,101825.72
2023-04-26T02:00:49.874Z,101822.94
2023-04-26T02:05:51.486Z,101820.38
2023-04-26T02:10:53.259Z,101817.16
2023-04-26T02:15:56.845Z,101818.63
2023-04-26T02:20:58.538Z,101829.38
2023-04-26T02:26:00.201Z,101821.84
2023-04-26T02:31:02.773Z,101822.75
2023-04-26T02:36:06.680Z,101809.97
2023-04-26T02:41:08.466Z,101815.31
2023-04-26T02:46:10.269Z,101815.75
2023-04-26T02:51:12.012Z,101808.34
2023-04-26T02:56:16.361Z,101809.03
2023-04-26T03:01:18.926Z,101810.44
2023-04-26T03:06:21.549Z,101804.00
2023-04-26T03:11:23.313Z,101816.09
2023-04-26T03:16:28.180Z,101819.44
2023-04-26T03:21:30.050Z,101804.16
2023-04-26T03:26:32.367Z,101795.16
2023-04-26T03:31:34.698Z,101799.09
2023-04-26T03:36:36.426Z,101803.28
2023-04-26T03:41:41.312Z,101798.47
2023-04-26T03:46:45.958Z,101802.41
2023-04-26T03:51:47.639Z,101802.09
2023-04-26T03:56:50.558Z,101793.59
2023-04-26T04:01:52.398Z,101788.13
2023-04-26T04:06:56.110Z,101786.44
2023-04-26T04:11:57.856Z,101785.88
2023-04-26T04:17:00.941Z,101789.28
2023-04-26T04:22:04.118Z,101786.72
2023-04-26T04:27:05.856Z,101788.19
2023-04-26T04:32:08.086Z,101797.13
2023-04-26T04:37:11.729Z,101803.53
2023-04-26T04:42:14.208Z,101787.09
2023-04-26T04:47:16.103Z,101791.91
2023-04-26T04:52:19.083Z,101790.81
2023-04-26T04:57:20.956Z,101811.88
2023-04-26T05:02:25.148Z,101803.66
2023-04-26T05:07:28.991Z,101797.63
2023-04-26T05:12:31.530Z,101810.75
2023-04-26T05:17:34.044Z,101801.03
2023-04-26T05:22:50.083Z,101807.28
2023-04-26T05:27:51.981Z,101803.56
2023-04-26T05:33:08.158Z,101811.38
2023-04-26T05:38:22.347Z,101806.59
2023-04-26T05:43:24.077Z,101808.94
2023-04-26T05:48:26.305Z,101820.31
2023-04-26T05:53:28.097Z,101826.53
2023-04-26T05:58:30.252Z,101823.91
2023-04-26T06:03:32.278Z,101831.19
2023-04-26T06:08:34.604Z,101829.19
2023-04-26T06:13:36.215Z,101839.75
2023-04-26T06:18:38.064Z,101849.84
2023-04-26T06:23:41.473Z,101848.75
2023-04-26T06:28:44.422Z,101853.53
2023-04-26T06:33:46.120Z,101852.38
2023-04-26T06:38:48.091Z,101850.09
2023-04-26T06:43:49.825Z,101860.94
2023-04-26T06:48:56.244Z,101856.34
2023-04-26T06:54:01.418Z,101853.28
2023-04-26T06:59:05.380Z,101853.75
2023-04-26T07:04:08.358Z,101851.84
2023-04-26T07:09:10.230Z,101846.09
2023-04-26T07:14:12.014Z,101853.16
2023-04-26T07:19:17.905Z,101858.63
2023-04-26T07:24:19.621Z,101858.50
2023-04-26T07:29:21.657Z,101854.19
2023-04-26T07:34:23.313Z,101857.94
2023-04-26T07:39:24.982Z,101870.34
2023-04-26T07:44:26.766Z,101861.09
2023-04-26T07:49:28.418Z,101870.66
2023-04-26T07:54:30.131Z,101875.69
2023-04-26T07:59:31.758Z,101875.88
2023-04-26T08:04:34.536Z,101867.22
2023-04-26T08:09:36.396Z,101873.84
2023-04-26T08:14:38.670Z,101877.28
2023-04-26T08:19:41.322Z,101874.69
2023-04-26T08:24:49.747Z,101871.94
2023-04-26T08:29:52.248Z,101877.91
2023-04-26T08:34:54.470Z,101874.28
2023-04-26T08:39:56.126Z,101877.31
2023-04-26T08:45:01.092Z,101877.91
2023-04-26T08:50:05.386Z,101886.09
2023-04-26T08:55:10.141Z,101868.91
2023-04-26T09:00:16.122Z,101874.88
2023-04-26T09:05:18.763Z,101869.97
2023-04-26T09:10:22.155Z,101875.19
2023-04-26T09:15:27.772Z,101879.00
2023-04-26T09:20:31.385Z,101876.16
2023-04-26T09:25:33.368Z,101870.28
2023-04-26T09:30:39.899Z,101874.06
2023-04-26T09:35:43.390Z,101878.03
2023-04-26T09:40:51.522Z,101884.41
2023-04-26T09:45:58.325Z,101880.78
2023-04-26T09:51:14.083Z,101890.28
2023-04-26T09:56:19.029Z,101881.78
2023-04-26T10:01:20.952Z,101873.19
2023-04-26T10:06:23.059Z,101876.78
2023-04-26T10:11:24.860Z,101878.59
2023-04-26T10:16:26.486Z,101879.44
2023-04-26T10:21:35.273Z,101876.38
2023-04-26T10:26:54.917Z,101866.91
2023-04-26T10:32:02.956Z,101872.31
2023-04-26T10:37:17.162Z,101875.06
2023-04-26T10:42:27.406Z,101878.34
2023-04-26T10:47:35.997Z,101871.06
2023-04-26T10:53:05.532Z,101870.00
2023-04-26T10:58:35.568Z,101866.13
2023-04-26T11:03:38.596Z,101867.41
2023-04-26T11:08:40.853Z,101867.75
2023-04-26T11:13:44.121Z,101863.31
2023-04-26T11:18:47.892Z,101855.13
2023-04-26T11:23:55.911Z,101858.84
2023-04-26T11:28:57.618Z,101842.88
2023-04-26T11:34:05.517Z,101849.59
2023-04-26T11:39:09.462Z,101846.31
2023-04-26T11:44:12.686Z,101848.94
2023-04-26T11:49:18.041Z,101841.09
2023-04-26T11:54:37.792Z,101845.84
2023-04-26T11:59:39.760Z,101846.47
2023-04-26T12:04:41.909Z,101840.00
2023-04-26T12:09:46.077Z,101845.78
2023-04-26T12:14:47.700Z,101857.38
2023-04-26T12:19:50.209Z,101846.13
2023-04-26T12:25:05.042Z,101855.09
2023-04-26T12:30:07.597Z,101856.03
2023-04-26T12:35:09.746Z,101864.34
2023-04-26T12:40:12.421Z,101862.84
2023-04-26T12:45:14.533Z,101865.28
2023-04-26T12:50:18.663Z,101868.81
2023-04-26T12:55:21.283Z,101862.59
2023-04-26T13:00:22.956Z,101864.00
2023-04-26T13:05:25.354Z,101873.91
2023-04-26T13:10:27.144Z,101869.00
2023-04-26T13:15:29.931Z,101875.50
2023-04-26T13:20:31.764Z,101878.72
2023-04-26T13:25:33.536Z,101866.81
2023-04-26T13:30:37.787Z,101867.34
2023-04-26T13:35:39.488Z,101874.72
2023-04-26T13:40:41.347Z,101882.97
2023-04-26T13:45:43.236Z,101877.34
2023-04-26T13:50:47.987Z,101872.97
2023-04-26T13:55:50.082Z,101869.47
2023-04-26T14:00:52.350Z,101870.13
2023-04-26T14:05:55.039Z,101872.59
2023-04-26T14:10:56.774Z,101865.53
2023-04-26T14:15:58.639Z,101871.75
2023-04-26T14:21:00.885Z,101874.00
2023-04-26T14:26:02.672Z,101880.13
2023-04-26T14:31:04.614Z,101862.84
2023-04-26T14:36:06.975Z,101872.72
2023-04-26T14:41:09.212Z,101876.78
2023-04-26T14:46:10.956Z,101874.28
2023-04-26T14:51:12.909Z,101869.72
2023-04-26T14:56:17.496Z,101871.56
2023-04-26T15:01:19.168Z,101874.00
2023-04-26T15:06:20.948Z,101881.16
2023-04-26T15:11:22.586Z,101873.22
2023-04-26T15:16:24.309Z,101881.94
2023-04-26T15:21:27.452Z,101876.84
2023-04-26T15:26:31.065Z,101879.31
2023-04-26T15:31:32.852Z,101881.91
2023-04-26T15:36:34.726Z,101883.97
2023-04-26T15:41:36.446Z,101881.41
2023-04-26T15:46:38.306Z,101888.66
2023-04-26T15:51:40.083Z,101883.38
2023-04-26T15:56:42.378Z,101892.00
2023-04-26T16:01:44.221Z,101884.63
2023-04-26T16:06:47.461Z,101882.72
2023-04-26T16:11:49.284Z,101886.16
2023-04-26T16:16:51.003Z,101884.16
2023-04-26T16:21:52.675Z,101881.94
2023-04-26T16:26:56.345Z,101888.09
2023-04-26T16:31:58.138Z,101889.09
2023-04-26T16:36:59.899Z,101882.78
2023-04-26T16:42:02.315Z,101872.19
2023-04-26T16:47:04.287Z,101866.22
2023-04-26T16:52:06.020Z,101878.41
2023-04-26T16:57:08.798Z,101878.22
2023-04-26T17:02:10.426Z,101881.34
2023-04-26T17:07:12.912Z,101886.88
2023-04-26T17:12:17.303Z,101893.25
2023-04-26T17:17:18.961Z,101894.22
2023-04-26T17:22:20.746Z,101892.78
2023-04-26T17:27:24.821Z,101894.84
2023-04-26T17:32:26.772Z,101898.06
2023-04-26T17:37:28.717Z,101898.94
2023-04-26T17:42:30.549Z,101901.41
2023-04-26T17:47:32.357Z,101908.56
2023-04-26T17:52:34.250Z,101904.13
2023-04-26T17:57:38.138Z,101895.16
2023-04-26T18:02:40.189Z,101915.72
2023-04-26T18:07:42.226Z,101911.34
2023-04-26T18:12:43.911Z,101920.97
2023-04-26T18:17:49.528Z,101918.75
2023-04-26T18:22:51.585Z,101926.06
2023-04-26T18:27:53.337Z,101922.75
2023-04-26T18:32:55.069Z,101921.19
2023-04-26T18:37:57.201Z,101918.66
2023-04-26T18:42:58.898Z,101913.38
2023-04-26T18:48:00.885Z,101912.69
2023-04-26T18:53:02.934Z,101924.09
2023-04-26T18:58:04.591Z,101926.13
2023-04-26T19:03:06.714Z,101917.88
2023-04-26T19:08:09.158Z,101914.47
2023-04-26T19:13:11.194Z,101926.91
2023-04-26T19:18:12.936Z,101925.47
2023-04-26T19:23:16.971Z,101934.19
2023-04-26T19:28:18.769Z,101939.56
2023-04-26T19:33:20.714Z,101943.25
2023-04-26T19:38:23.579Z,101945.34
2023-04-26T19:43:25.208Z,101939.84
2023-04-26T19:48:27.824Z,101954.91
2023-04-26T19:53:29.461Z,101949.88
2023-04-26T19:58:32.451Z,101955.50
2023-04-26T20:03:34.320Z,101943.44
2023-04-26T20:08:55.850Z,101952.25
2023-04-26T20:13:57.444Z,101953.09
2023-04-26T20:18:59.038Z,101956.44
2023-04-26T20:24:00.715Z,101952.84
2023-04-26T20:29:02.420Z,101947.91
2023-04-26T20:34:04.117Z,101947.78
2023-04-26T20:39:06.000Z,101949.09
2023-04-26T20:44:07.881Z,101952.13
2023-04-26T20:49:09.742Z,101953.28
2023-04-26T20:54:11.673Z,101955.31
2023-04-26T20:59:13.514Z,101954.47
2023-04-26T21:04:16.055Z,101954.63
2023-04-26T21:09:18.223Z,101945.81
2023-04-26T21:14:19.877Z,101949.00
2023-04-26T21:19:22.048Z,101950.72
2023-04-26T21:24:23.847Z,101950.16
2023-04-26T21:29:25.579Z,101949.44
2023-04-26T21:34:27.289Z,101954.16
2023-04-26T21:39:29.002Z,101959.41
2023-04-26T21:44:31.930Z,101956.94
2023-04-26T21:49:34.605Z,101976.13
2023-04-26T21:54:36.837Z,101965.88
2023-04-26T21:59:42.155Z,101962.97
2023-04-26T22:04:43.810Z,101963.66
2023-04-26T22:09:48.745Z,101964.56
2023-04-26T22:14:50.482Z,101961.22
2023-04-26T22:19:52.072Z,101961.09
2023-04-26T22:24:53.721Z,101961.06
2023-04-26T22:29:55.340Z,101959.91
2023-04-26T22:34:57.027Z,101965.22
2023-04-26T22:39:58.847Z,101967.38
2023-04-26T22:45:01.025Z,101970.34
2023-04-26T22:50:03.225Z,101978.13
2023-04-26T22:55:07.957Z,101984.81
2023-04-26T23:00:12.283Z,101977.19
2023-04-26T23:05:14.019Z,101978.59
2023-04-26T23:10:17.986Z,101978.00
2023-04-26T23:15:19.900Z,101988.09
2023-04-26T23:20:21.766Z,101975.63
2023-04-26T23:25:23.592Z,101985.81
2023-04-26T23:30:25.294Z,101988.63
2023-04-26T23:35:26.971Z,102007.59
2023-04-26T23:40:28.659Z,102001.38
2023-04-26T23:45:30.554Z,102012.56
2023-04-26T23:50:32.314Z,102019.34
2023-04-26T23:55:33.987Z,102019.00
